Time;durP1;ratioP1;P1;durP2;ratioP2;P2;SDS_P1;SDS_P2;PMS_P1;PMS_P2;Temp;Humidity;BMP_temperature;BMP_pressure;BME280_temperature;BME280_humidity;BME280_pressure;Samples;Min_cycle;Max_cycle;Signal;HPM_P1;HPM_P2
2024/01/18 00:02:22;;;;;;;0.90;0.90;;;-0.60;99.90;;;;;;5049159;28;20234;-80
2024/01/18 00:04:49;;;;;;;4.68;4.43;;;-0.60;99.90;;;;;;5045999;28;20199;-80
2024/01/18 00:07:17;;;;;;;0.50;0.40;;;-0.60;99.90;;;;;;5045971;28;20207;-80
2024/01/18 00:09:44;;;;;;;0.50;0.40;;;-0.60;99.90;;;;;;5047447;28;20204;-80
2024/01/18 00:12:11;;;;;;;2.17;0.98;;;-0.60;99.90;;;;;;5049193;28;20199;-80
2024/01/18 00:14:38;;;;;;;1.33;1.33;;;-0.60;99.90;;;;;;5049349;28;20203;-79
2024/01/18 00:17:05;;;;;;;0.50;0.40;;;-0.60;99.90;;;;;;5048974;28;20199;-80
2024/01/18 00:19:32;;;;;;;0.70;0.70;;;-0.60;99.90;;;;;;5048488;28;20215;-79
2024/01/18 00:21:58;;;;;;;0.50;0.40;;;-0.60;99.90;;;;;;5045377;28;20562;-80
2024/01/18 00:24:26;;;;;;;0.50;0.50;;;-0.60;99.90;;;;;;5044886;28;20200;-80
2024/01/18 00:26:53;;;;;;;0.50;0.50;;;-0.60;99.90;;;;;;5048339;28;20191;-80
2024/01/18 00:29:20;;;;;;;0.57;0.57;;;-0.60;99.90;;;;;;5047963;28;20209;-80
2024/01/18 00:31:47;;;;;;;0.50;0.40;;;-0.70;99.90;;;;;;5048112;28;20195;-80
2024/01/18 00:34:13;;;;;;;0.93;0.93;;;-0.70;99.90;;;;;;5046717;28;20221;-79
2024/01/18 00:36:40;;;;;;;0.50;0.40;;;-0.70;99.90;;;;;;5037934;28;20204;-78
2024/01/18 00:39:11;;;;;;;0.50;0.50;;;-0.60;99.90;;;;;;5040833;28;20587;-79
2024/01/18 00:41:39;;;;;;;0.50;0.40;;;-0.70;99.90;;;;;;5042676;28;20288;-78
2024/01/18 00:44:06;;;;;;;0.50;0.50;;;-0.60;99.90;;;;;;5041300;28;20323;-79
2024/01/18 00:46:32;;;;;;;0.50;0.40;;;-0.60;99.90;;;;;;5042524;28;20203;-80
2024/01/18 00:48:59;;;;;;;0.50;0.43;;;-0.60;99.90;;;;;;5035634;28;20203;-79
2024/01/18 00:51:26;;;;;;;0.50;0.40;;;-0.60;99.90;;;;;;5043591;28;20200;-79
2024/01/18 00:53:52;;;;;;;0.50;0.50;;;-0.60;99.90;;;;;;5044304;28;20226;-80
2024/01/18 00:56:19;;;;;;;0.82;0.82;;;-0.60;99.90;;;;;;5039207;28;20206;-79
2024/01/18 00:58:49;;;;;;;0.50;0.50;;;-0.60;99.90;;;;;;5043471;28;20226;-79
2024/01/18 01:01:16;;;;;;;0.50;0.40;;;-0.60;99.90;;;;;;5045426;28;20199;-79
2024/01/18 01:03:43;;;;;;;0.50;0.43;;;-0.60;99.90;;;;;;5045663;28;20219;-78
2024/01/18 01:06:11;;;;;;;0.50;0.50;;;-0.60;99.90;;;;;;5045189;28;20197;-79
2024/01/18 01:08:38;;;;;;;0.50;0.50;;;-0.60;99.90;;;;;;5044718;28;20202;-78
2024/01/18 01:11:04;;;;;;;0.50;0.40;;;-0.70;99.90;;;;;;5042031;28;20292;-80
2024/01/18 01:13:31;;;;;;;1.00;0.90;;;-0.60;99.90;;;;;;5041768;28;20224;-79
2024/01/18 01:15:59;;;;;;;0.50;0.40;;;-0.60;99.90;;;;;;5044126;28;20191;-80
2024/01/18 01:18:26;;;;;;;0.50;0.40;;;-0.60;99.90;;;;;;5045502;28;20686;-80
2024/01/18 01:20:53;;;;;;;0.50;0.40;;;-0.60;99.90;;;;;;5042762;28;20203;-80
2024/01/18 01:23:20;;;;;;;0.50;0.40;;;-0.60;99.90;;;;;;5041310;28;20226;-79
2024/01/18 01:25:47;;;;;;;1.05;1.05;;;-0.60;99.90;;;;;;5041275;28;20200;-79
2024/01/18 01:28:13;;;;;;;0.50;0.50;;;-0.70;99.90;;;;;;5038542;28;20191;-79
2024/01/18 01:30:40;;;;;;;1.58;1.58;;;-0.70;99.90;;;;;;5044570;28;20199;-80
2024/01/18 01:33:08;;;;;;;0.50;0.40;;;-0.70;99.90;;;;;;5041462;28;20220;-79
2024/01/18 01:35:35;;;;;;;0.50;0.50;;;-0.70;99.90;;;;;;5041346;28;20200;-80
2024/01/18 01:38:03;;;;;;;0.50;0.50;;;-0.70;99.90;;;;;;5044241;28;20215;-78
2024/01/18 01:40:29;;;;;;;0.50;0.40;;;-0.70;99.90;;;;;;5044742;28;20571;-80
2024/01/18 01:42:56;;;;;;;0.50;0.50;;;-0.70;99.90;;;;;;5042669;28;20215;-79
2024/01/18 01:45:23;;;;;;;0.50;0.40;;;-0.70;99.90;;;;;;5047603;28;20205;-79
2024/01/18 01:47:50;;;;;;;0.50;0.40;;;-0.80;99.90;;;;;;5044579;28;20244;-80
2024/01/18 01:50:18;;;;;;;0.50;0.40;;;-0.80;99.90;;;;;;5044760;28;20201;-79
2024/01/18 01:52:47;;;;;;;0.50;0.50;;;-0.70;99.90;;;;;;5044016;28;20222;-79
2024/01/18 01:55:15;;;;;;;0.50;0.40;;;-0.70;99.90;;;;;;5045422;28;20217;-80
2024/01/18 01:57:45;;;;;;;0.50;0.40;;;-0.70;99.90;;;;;;5044196;28;20242;-80
2024/01/18 02:00:14;;;;;;;0.50;0.40;;;-0.70;99.90;;;;;;5040641;28;20309;-78
2024/01/18 02:02:43;;;;;;;0.50;0.40;;;-0.70;99.90;;;;;;5040956;28;20226;-79
2024/01/18 02:05:10;;;;;;;0.50;0.40;;;-0.70;99.90;;;;;;5033547;28;20445;-78
2024/01/18 02:07:38;;;;;;;0.50;0.40;;;-0.70;99.90;;;;;;5041002;28;20196;-79
2024/01/18 02:10:06;;;;;;;0.50;0.40;;;-0.70;99.90;;;;;;5043754;28;20194;-79
2024/01/18 02:12:34;;;;;;;0.50;0.40;;;-0.70;99.90;;;;;;5044250;28;20225;-78
2024/01/18 02:15:01;;;;;;;0.50;0.40;;;-0.70;99.90;;;;;;5041838;28;20613;-79
2024/01/18 02:17:28;;;;;;;0.50;0.45;;;-0.60;99.90;;;;;;5040991;28;20199;-78
2024/01/18 02:19:55;;;;;;;1.25;1.15;;;-0.60;99.90;;;;;;5042137;28;20215;-79
2024/01/18 02:22:25;;;;;;;0.50;0.40;;;-0.60;99.90;;;;;;5044723;28;20230;-78
2024/01/18 02:24:57;;;;;;;0.50;0.40;;;-0.70;99.90;;;;;;5043182;28;20199;-78
2024/01/18 02:27:25;;;;;;;0.50;0.40;;;-0.60;99.90;;;;;;5043558;28;20196;-78
2024/01/18 02:29:53;;;;;;;0.50;0.50;;;-0.60;99.90;;;;;;5045761;28;20290;-78
2024/01/18 02:32:19;;;;;;;0.50;0.40;;;-0.60;99.90;;;;;;5048317;28;20211;-79
2024/01/18 02:34:46;;;;;;;0.50;0.40;;;-0.70;99.90;;;;;;5047526;28;20203;-78
2024/01/18 02:37:13;;;;;;;0.50;0.40;;;-0.70;99.90;;;;;;5044773;28;20479;-78
2024/01/18 02:39:40;;;;;;;0.50;0.40;;;-0.70;99.90;;;;;;5044252;28;20699;-78
2024/01/18 02:42:07;;;;;;;1.20;1.15;;;-0.70;99.90;;;;;;5047216;28;20195;-78
2024/01/18 02:44:37;;;;;;;0.50;0.40;;;-0.70;99.90;;;;;;5047797;28;20210;-78
2024/01/18 02:47:04;;;;;;;0.50;0.50;;;-0.60;99.90;;;;;;5039530;28;20579;-78
2024/01/18 02:49:30;;;;;;;4.80;1.73;;;-0.70;99.90;;;;;;5048195;28;20202;-78
2024/01/18 02:51:57;;;;;;;0.50;0.50;;;-0.70;99.90;;;;;;5046184;28;20199;-79
2024/01/18 02:54:24;;;;;;;0.50;0.47;;;-0.70;99.90;;;;;;5044042;28;20223;-78
2024/01/18 02:56:51;;;;;;;0.50;0.40;;;-0.70;99.90;;;;;;5046100;28;20204;-78
2024/01/18 02:59:18;;;;;;;0.50;0.40;;;-0.70;99.90;;;;;;5055037;28;20270;-80
2024/01/18 03:01:46;;;;;;;0.50;0.40;;;-0.70;99.90;;;;;;5044841;28;20200;-79
2024/01/18 03:04:12;;;;;;;0.50;0.50;;;-0.70;99.90;;;;;;5036919;28;20219;-80
2024/01/18 03:06:39;;;;;;;0.50;0.40;;;-0.80;99.90;;;;;;5045524;28;20279;-80
2024/01/18 03:09:06;;;;;;;0.50;0.40;;;-0.70;99.90;;;;;;5044696;28;20231;-81
2024/01/18 03:11:33;;;;;;;0.60;0.60;;;-0.70;99.90;;;;;;5044114;28;20203;-81
2024/01/18 03:14:00;;;;;;;0.85;0.82;;;-0.70;99.90;;;;;;5046147;28;20246;-80
2024/01/18 03:16:28;;;;;;;1.13;1.02;;;-0.70;99.90;;;;;;5051056;28;20200;-80
2024/01/18 03:18:56;;;;;;;0.50;0.50;;;-0.70;99.90;;;;;;5053282;28;20284;-79
2024/01/18 03:21:23;;;;;;;0.50;0.50;;;-0.70;99.90;;;;;;5047731;28;20202;-80
2024/01/18 03:23:49;;;;;;;0.50;0.40;;;-0.70;99.90;;;;;;5047550;28;20223;-79
2024/01/18 03:26:16;;;;;;;0.50;0.47;;;-0.70;99.90;;;;;;5044201;28;20192;-79
2024/01/18 03:28:43;;;;;;;0.50;0.40;;;-0.80;99.90;;;;;;5044016;28;20196;-80
2024/01/18 03:31:11;;;;;;;2.50;2.40;;;-0.80;99.90;;;;;;5044005;28;20203;-81
2024/01/18 03:33:39;;;;;;;0.50;0.40;;;-0.80;99.90;;;;;;5044517;28;20295;-79
2024/01/18 03:36:07;;;;;;;0.68;0.68;;;-0.80;99.90;;;;;;5043638;28;20748;-79
2024/01/18 03:38:34;;;;;;;0.50;0.40;;;-0.80;99.90;;;;;;5042927;28;20220;-79
2024/01/18 03:41:00;;;;;;;0.60;0.60;;;-0.80;99.90;;;;;;5044375;28;20230;-80
2024/01/18 03:43:27;;;;;;;0.60;0.60;;;-0.80;99.90;;;;;;5047475;28;20227;-80
2024/01/18 03:45:54;;;;;;;0.50;0.50;;;-0.80;99.90;;;;;;5046775;28;20210;-80
2024/01/18 03:48:21;;;;;;;0.50;0.50;;;-0.80;99.90;;;;;;5043871;28;20678;-80
2024/01/18 03:50:47;;;;;;;0.50;0.40;;;-0.70;99.90;;;;;;5044020;28;20693;-80
2024/01/18 03:53:16;;;;;;;0.50;0.40;;;-0.70;99.90;;;;;;5046162;28;20215;-80
2024/01/18 03:55:43;;;;;;;0.80;0.77;;;-0.80;99.90;;;;;;5047943;28;20196;-79
2024/01/18 03:58:10;;;;;;;0.50;0.40;;;-0.80;99.90;;;;;;5045120;28;20200;-78
2024/01/18 04:00:38;;;;;;;0.50;0.40;;;-0.80;99.90;;;;;;5046144;28;20694;-77
2024/01/18 04:03:05;;;;;;;0.50;0.50;;;-0.80;99.90;;;;;;5037004;28;20346;-78
2024/01/18 04:05:32;;;;;;;0.93;0.93;;;-0.90;99.90;;;;;;5042635;28;20211;-78
2024/01/18 04:07:59;;;;;;;0.50;0.50;;;-0.90;99.90;;;;;;5042909;28;20211;-79
2024/01/18 04:10:27;;;;;;;2.65;2.55;;;-0.90;99.90;;;;;;5049576;28;20215;-79
2024/01/18 04:12:54;;;;;;;0.70;0.70;;;-0.90;99.90;;;;;;5042723;28;20224;-78
2024/01/18 04:15:20;;;;;;;0.70;0.70;;;-0.90;99.90;;;;;;5031460;28;20210;-78
2024/01/18 04:17:47;;;;;;;0.50;0.40;;;-0.90;99.90;;;;;;5048624;28;20210;-78
2024/01/18 04:20:17;;;;;;;0.70;0.50;;;-0.90;99.90;;;;;;5046797;28;20610;-78
2024/01/18 04:22:44;;;;;;;2.15;1.13;;;-0.90;99.90;;;;;;5047131;28;20219;-78
2024/01/18 04:25:11;;;;;;;0.80;0.80;;;-0.90;99.90;;;;;;5038431;28;20206;-79
2024/01/18 04:27:39;;;;;;;3.97;1.98;;;-0.90;99.90;;;;;;5047309;28;20195;-79
2024/01/18 04:30:08;;;;;;;0.50;0.50;;;-0.90;99.90;;;;;;5049594;28;20191;-78
2024/01/18 04:32:34;;;;;;;0.50;0.45;;;-0.90;99.90;;;;;;5049472;28;20218;-79
2024/01/18 04:35:01;;;;;;;0.50;0.40;;;-0.90;99.90;;;;;;5048328;28;20211;-79
2024/01/18 04:37:28;;;;;;;0.50;0.45;;;-0.90;99.90;;;;;;5044939;28;20203;-79
2024/01/18 04:39:54;;;;;;;0.50;0.40;;;-0.90;99.90;;;;;;5043555;28;20218;-78
2024/01/18 04:42:21;;;;;;;1.08;0.80;;;-0.90;99.90;;;;;;5047428;28;20199;-80
2024/01/18 04:44:49;;;;;;;0.50;0.50;;;-0.90;99.90;;;;;;5047500;28;20570;-79
2024/01/18 04:47:17;;;;;;;0.50;0.40;;;-0.90;99.90;;;;;;5045136;28;20210;-78
2024/01/18 04:49:44;;;;;;;2.13;1.92;;;-0.90;99.90;;;;;;5043056;28;20200;-78
2024/01/18 04:52:11;;;;;;;0.70;0.70;;;-0.90;99.90;;;;;;5045091;28;20192;-78
2024/01/18 04:54:38;;;;;;;0.70;0.70;;;-0.90;99.90;;;;;;5046741;28;20199;-79
2024/01/18 04:57:05;;;;;;;0.50;0.40;;;-0.90;99.90;;;;;;5045717;28;20199;-79
2024/01/18 04:59:31;;;;;;;2.05;0.90;;;-0.90;99.90;;;;;;5042858;28;20215;-80
2024/01/18 05:02:00;;;;;;;0.70;0.70;;;-0.90;99.90;;;;;;5042925;28;20200;-79
2024/01/18 05:04:27;;;;;;;0.50;0.40;;;-0.90;99.90;;;;;;5034371;28;20594;-79
2024/01/18 05:06:53;;;;;;;0.50;0.40;;;-0.90;99.90;;;;;;5041930;28;20689;-79
2024/01/18 05:09:20;;;;;;;0.50;0.40;;;-0.90;99.90;;;;;;5044797;28;20671;-79
2024/01/18 05:11:47;;;;;;;1.10;1.10;;;-1.00;99.90;;;;;;5045835;28;20286;-79
2024/01/18 05:14:14;;;;;;;5.30;3.28;;;-0.90;99.90;;;;;;5037787;28;20226;-78
2024/01/18 05:16:43;;;;;;;0.50;0.50;;;-0.90;99.90;;;;;;5046418;28;20191;-79
2024/01/18 05:19:11;;;;;;;0.50;0.40;;;-1.00;99.90;;;;;;5044254;28;20246;-78
2024/01/18 05:21:38;;;;;;;0.50;0.40;;;-1.00;99.90;;;;;;5041407;28;20196;-79
2024/01/18 05:24:05;;;;;;;0.50;0.40;;;-1.00;99.90;;;;;;5043299;28;20216;-79
2024/01/18 05:26:32;;;;;;;0.50;0.40;;;-1.00;99.90;;;;;;5042381;28;20195;-79
2024/01/18 05:28:59;;;;;;;0.50;0.40;;;-1.00;99.90;;;;;;5050131;28;20191;-77
2024/01/18 05:31:26;;;;;;;0.50;0.50;;;-1.10;99.90;;;;;;5041229;28;20245;-78
2024/01/18 05:33:56;;;;;;;0.50;0.50;;;-1.00;99.90;;;;;;5041284;28;20785;-78
2024/01/18 05:36:24;;;;;;;0.50;0.40;;;-1.00;99.90;;;;;;5045605;28;20290;-78
2024/01/18 05:38:50;;;;;;;0.50;0.40;;;-1.10;99.90;;;;;;5044741;28;20202;-79
2024/01/18 05:41:17;;;;;;;0.50;0.40;;;-1.10;99.90;;;;;;5042559;28;20670;-78
2024/01/18 05:43:44;;;;;;;0.50;0.40;;;-1.10;99.90;;;;;;5039135;28;20306;-80
2024/01/18 05:46:11;;;;;;;0.50;0.40;;;-1.10;99.90;;;;;;5046063;28;20196;-78
2024/01/18 05:48:37;;;;;;;0.60;0.60;;;-1.20;99.90;;;;;;5042517;28;20238;-79
2024/01/18 05:51:05;;;;;;;0.50;0.40;;;-1.10;99.90;;;;;;5041602;28;20202;-80
2024/01/18 05:53:33;;;;;;;0.50;0.40;;;-1.10;99.90;;;;;;5070978;28;20206;-78
2024/01/18 05:56:00;;;;;;;0.50;0.40;;;-1.10;99.90;;;;;;5063351;28;20191;-79
2024/01/18 05:58:30;;;;;;;0.50;0.40;;;-1.20;99.90;;;;;;5052407;28;20230;-80
2024/01/18 06:00:56;;;;;;;0.50;0.50;;;-1.20;99.90;;;;;;5048646;28;20207;-80
2024/01/18 06:03:24;;;;;;;3.30;3.13;;;-1.10;99.90;;;;;;5049696;28;20274;-79
2024/01/18 06:05:51;;;;;;;1.98;1.88;;;-1.10;99.90;;;;;;5048689;28;20204;-78
2024/01/18 06:08:18;;;;;;;0.50;0.50;;;-1.20;99.90;;;;;;5047801;28;20199;-78
2024/01/18 06:10:46;;;;;;;0.50;0.40;;;-1.10;99.90;;;;;;5047630;28;20188;-79
2024/01/18 06:13:13;;;;;;;0.50;0.50;;;-1.10;99.90;;;;;;5057628;28;20222;-80
2024/01/18 06:15:40;;;;;;;0.50;0.50;;;-1.20;99.90;;;;;;5051671;28;20199;-78
2024/01/18 06:18:07;;;;;;;0.50;0.40;;;-1.20;99.90;;;;;;5050747;28;20207;-78
2024/01/18 06:20:34;;;;;;;0.50;0.40;;;-1.20;99.90;;;;;;5043084;28;20218;-78
2024/01/18 06:23:01;;;;;;;0.50;0.50;;;-1.20;99.90;;;;;;5050686;28;20242;-79
2024/01/18 06:25:28;;;;;;;0.50;0.40;;;-1.20;99.90;;;;;;5048025;28;20573;-78
2024/01/18 06:27:56;;;;;;;0.70;0.70;;;-1.20;99.90;;;;;;5048461;28;20286;-79
2024/01/18 06:30:24;;;;;;;0.50;0.40;;;-1.20;99.90;;;;;;5048247;28;20196;-80
2024/01/18 06:32:51;;;;;;;0.50;0.50;;;-1.30;99.90;;;;;;5048535;28;20269;-79
2024/01/18 06:35:17;;;;;;;0.50;0.40;;;-1.30;99.90;;;;;;5057718;28;20274;-78
2024/01/18 06:37:44;;;;;;;0.50;0.50;;;-1.30;99.90;;;;;;5046126;28;20199;-82
2024/01/18 06:40:13;;;;;;;1.70;1.13;;;-1.40;99.90;;;;;;5050591;28;20215;-79
2024/01/18 06:42:40;;;;;;;0.50;0.40;;;-1.50;99.90;;;;;;5052594;28;20258;-81
2024/01/18 06:45:10;;;;;;;1.13;1.13;;;-1.60;99.90;;;;;;5051446;28;20214;-78
2024/01/18 06:47:37;;;;;;;0.50;0.50;;;-1.70;99.90;;;;;;5039878;28;20203;-77
2024/01/18 06:50:04;;;;;;;1.95;1.85;;;-1.80;99.90;;;;;;5048187;28;20196;-79
2024/01/18 06:52:31;;;;;;;12.07;3.55;;;-1.90;99.90;;;;;;5050897;28;20342;-79
2024/01/18 06:54:57;;;;;;;1.00;1.00;;;-1.90;99.90;;;;;;5051952;28;20199;-79
2024/01/18 06:57:24;;;;;;;0.80;0.80;;;-1.90;99.90;;;;;;5048842;28;20210;-81
2024/01/18 06:59:52;;;;;;;0.82;0.82;;;-2.00;99.90;;;;;;5040006;28;20216;-80
2024/01/18 07:02:20;;;;;;;0.50;0.40;;;-2.00;99.90;;;;;;5057623;28;20202;-80
2024/01/18 07:04:47;;;;;;;7.30;4.68;;;-2.10;99.90;;;;;;5051574;28;20205;-80
2024/01/18 07:07:14;;;;;;;0.50;0.50;;;-2.10;99.90;;;;;;5051578;28;20277;-80
2024/01/18 07:09:40;;;;;;;0.50;0.50;;;-2.20;99.90;;;;;;5050963;28;20210;-79
2024/01/18 07:12:07;;;;;;;0.50;0.40;;;-2.20;99.90;;;;;;5051187;28;20577;-79
2024/01/18 07:14:34;;;;;;;0.50;0.40;;;-2.30;99.90;;;;;;5050083;28;20199;-81
2024/01/18 07:17:01;;;;;;;0.70;0.70;;;-2.40;99.90;;;;;;5053896;28;20544;-80
2024/01/18 07:19:29;;;;;;;0.50;0.50;;;-2.40;99.90;;;;;;5047901;28;20198;-81
2024/01/18 07:22:01;;;;;;;1.80;1.70;;;-2.40;99.90;;;;;;5046107;28;20199;-81
2024/01/18 07:24:30;;;;;;;0.80;0.80;;;-2.40;99.90;;;;;;5050789;28;20227;-81
2024/01/18 07:26:57;;;;;;;3.13;2.85;;;-2.50;99.90;;;;;;5059619;28;20609;-79
2024/01/18 07:29:24;;;;;;;0.70;0.70;;;-2.50;99.90;;;;;;5049448;28;20204;-81
2024/01/18 07:31:50;;;;;;;0.50;0.50;;;-2.60;99.90;;;;;;5043552;28;20199;-81
2024/01/18 07:34:17;;;;;;;0.50;0.40;;;-2.60;99.90;;;;;;5050631;28;20223;-82
2024/01/18 07:36:45;;;;;;;11.40;10.80;;;-2.60;99.90;;;;;;5051013;28;20217;-80
2024/01/18 07:39:12;;;;;;;5.53;4.82;;;-2.60;99.90;;;;;;5050683;28;20202;-80
2024/01/18 07:41:39;;;;;;;0.50;0.50;;;-2.60;99.90;;;;;;5033541;28;20242;-81
2024/01/18 07:44:05;;;;;;;1.30;1.30;;;-2.60;99.90;;;;;;5050972;28;20214;-81
2024/01/18 07:46:33;;;;;;;0.75;0.75;;;-2.60;99.90;;;;;;5048299;28;20222;-81
2024/01/18 07:49:01;;;;;;;1.48;1.45;;;-2.60;99.90;;;;;;5047220;28;20242;-81
2024/01/18 07:51:28;;;;;;;0.50;0.40;;;-2.60;99.90;;;;;;5047403;28;20196;-81
2024/01/18 07:53:56;;;;;;;0.50;0.50;;;-2.60;99.90;;;;;;5053163;28;20223;-81
2024/01/18 07:56:24;;;;;;;0.50;0.50;;;-2.60;99.90;;;;;;5049374;28;20201;-80
2024/01/18 07:58:50;;;;;;;0.70;0.70;;;-2.70;99.90;;;;;;5039304;28;20195;-82
2024/01/18 08:01:18;;;;;;;0.50;0.45;;;-2.70;99.90;;;;;;5055610;28;20223;-80
2024/01/18 08:03:44;;;;;;;0.50;0.40;;;-2.70;99.90;;;;;;5054815;28;20211;-79
2024/01/18 08:06:12;;;;;;;0.50;0.50;;;-2.60;99.90;;;;;;5059076;28;20191;-78
2024/01/18 08:08:40;;;;;;;0.93;0.93;;;-2.70;99.90;;;;;;5049242;28;20267;-81
2024/01/18 08:11:10;;;;;;;0.98;0.98;;;-2.60;99.90;;;;;;5045952;28;20190;-81
2024/01/18 08:13:36;;;;;;;0.77;0.77;;;-2.60;99.90;;;;;;5042456;28;20238;-81
2024/01/18 08:16:03;;;;;;;0.50;0.50;;;-2.60;99.90;;;;;;5050444;28;20598;-82
2024/01/18 08:18:30;;;;;;;2.85;2.75;;;-2.50;99.90;;;;;;5040941;28;20200;-81
2024/01/18 08:20:58;;;;;;;0.50;0.40;;;-2.40;99.90;;;;;;5049879;28;20682;-81
2024/01/18 08:23:24;;;;;;;8.35;7.93;;;-2.20;99.90;;;;;;5050068;28;20257;-81
2024/01/18 08:25:51;;;;;;;2.90;2.80;;;-1.90;99.90;;;;;;5045176;28;20200;-81
2024/01/18 08:28:19;;;;;;;0.50;0.50;;;-1.50;99.90;;;;;;5045328;28;20294;-80
2024/01/18 08:30:46;;;;;;;0.50;0.40;;;-1.00;99.90;;;;;;5046045;28;20203;-81
2024/01/18 08:33:13;;;;;;;0.50;0.40;;;-0.30;99.90;;;;;;5045534;28;20219;-81
2024/01/18 08:35:40;;;;;;;0.47;0.40;;;0.60;99.90;;;;;;5045895;28;20199;-81
2024/01/18 08:38:07;;;;;;;0.40;0.40;;;1.70;99.90;;;;;;5044160;28;20213;-82
2024/01/18 08:40:34;;;;;;;0.40;0.40;;;2.60;99.90;;;;;;5046792;28;20211;-82
2024/01/18 08:43:00;;;;;;;1.48;1.40;;;3.60;99.90;;;;;;5050519;28;20211;-80
2024/01/18 08:45:29;;;;;;;0.40;0.40;;;4.20;99.90;;;;;;5047429;28;20198;-82
2024/01/18 08:47:56;;;;;;;0.88;0.88;;;4.40;99.90;;;;;;5044730;28;20196;-79
2024/01/18 08:50:23;;;;;;;1.27;1.27;;;4.50;99.90;;;;;;5043589;28;20207;-82
2024/01/18 08:52:51;;;;;;;0.50;0.50;;;4.40;99.90;;;;;;5041078;28;20219;-81
2024/01/18 08:55:18;;;;;;;0.50;0.50;;;4.00;99.90;;;;;;5048980;28;20206;-78
2024/01/18 08:57:45;;;;;;;0.85;0.85;;;4.00;99.90;;;;;;5046146;28;20192;-81
2024/01/18 09:00:13;;;;;;;2.58;2.38;;;4.40;99.90;;;;;;5045240;28;20203;-82
2024/01/18 09:02:42;;;;;;;3.83;3.47;;;5.00;99.90;;;;;;5047523;28;20265;-81
2024/01/18 09:05:09;;;;;;;3.22;2.97;;;5.30;99.90;;;;;;5041716;28;20192;-79
2024/01/18 09:07:36;;;;;;;0.50;0.40;;;5.70;99.90;;;;;;5044548;28;20196;-81
2024/01/18 09:10:04;;;;;;;0.50;0.45;;;6.20;99.90;;;;;;5044709;28;20200;-82
2024/01/18 09:12:31;;;;;;;0.50;0.50;;;6.50;99.90;;;;;;5046205;28;21014;-82
2024/01/18 09:14:57;;;;;;;1.08;0.98;;;7.20;99.90;;;;;;5043670;28;20192;-82
2024/01/18 09:17:24;;;;;;;1.10;1.00;;;8.00;99.90;;;;;;5045308;28;20200;-81
2024/01/18 09:19:53;;;;;;;6.07;2.13;;;8.50;99.90;;;;;;5049111;28;20195;-82
2024/01/18 09:22:19;;;;;;;2.25;2.05;;;8.30;99.90;;;;;;5048671;28;20219;-81
2024/01/18 09:24:46;;;;;;;0.50;0.40;;;8.30;99.90;;;;;;5044776;28;20202;-82
2024/01/18 09:27:13;;;;;;;1.25;1.25;;;8.10;99.90;;;;;;5044970;28;20568;-79
2024/01/18 09:29:40;;;;;;;0.50;0.40;;;8.30;99.90;;;;;;5052671;28;20201;-82
2024/01/18 09:32:07;;;;;;;0.50;0.40;;;8.90;99.90;;;;;;5042745;28;20203;-81
2024/01/18 09:34:33;;;;;;;1.33;1.33;;;9.00;99.90;;;;;;5047791;28;20249;-82
2024/01/18 09:37:02;;;;;;;3.10;1.88;;;8.90;99.90;;;;;;5041458;28;20199;-82
2024/01/18 09:39:28;;;;;;;0.50;0.50;;;8.00;99.90;;;;;;5053412;28;20203;-82
2024/01/18 09:41:56;;;;;;;2.47;2.30;;;7.90;99.90;;;;;;5059764;28;20706;-82
2024/01/18 09:44:26;;;;;;;0.93;0.93;;;7.70;99.90;;;;;;5052697;28;20289;-82
2024/01/18 09:46:54;;;;;;;1.15;1.13;;;7.80;99.90;;;;;;5044754;28;20737;-82
2024/01/18 09:49:20;;;;;;;4.97;2.05;;;7.50;99.90;;;;;;5051965;28;20205;-82
2024/01/18 09:51:48;;;;;;;0.50;0.40;;;7.30;99.90;;;;;;5051367;28;20195;-81
2024/01/18 09:54:17;;;;;;;1.23;1.13;;;7.20;99.90;;;;;;5051899;28;20222;-82
2024/01/18 09:56:46;;;;;;;0.60;0.60;;;7.50;99.90;;;;;;5044177;28;20267;-82
2024/01/18 09:59:16;;;;;;;0.50;0.40;;;7.90;99.90;;;;;;5052625;28;20199;-82
2024/01/18 10:01:43;;;;;;;0.50;0.40;;;8.10;99.90;;;;;;5052119;28;20218;-82
2024/01/18 10:04:12;;;;;;;0.50;0.40;;;8.40;99.90;;;;;;5051776;28;20309;-82
2024/01/18 10:06:39;;;;;;;5.07;1.02;;;8.20;99.90;;;;;;5045707;28;20204;-82
2024/01/18 10:09:06;;;;;;;0.50;0.40;;;8.10;99.90;;;;;;5050097;28;20196;-81
2024/01/18 10:11:34;;;;;;;0.50;0.40;;;7.70;99.90;;;;;;5043609;28;20195;-82
2024/01/18 10:14:02;;;;;;;0.68;0.68;;;7.30;99.90;;;;;;5045308;28;20226;-79
2024/01/18 10:16:30;;;;;;;0.50;0.40;;;7.00;99.90;;;;;;5059627;28;20200;-79
2024/01/18 10:18:57;;;;;;;0.73;0.73;;;6.80;99.90;;;;;;5059463;28;20203;-80
2024/01/18 10:21:25;;;;;;;1.38;1.27;;;7.20;99.90;;;;;;5047547;28;20222;-81
2024/01/18 10:23:53;;;;;;;1.02;0.98;;;7.00;99.90;;;;;;5051969;28;20215;-80
2024/01/18 10:26:20;;;;;;;1.48;1.38;;;6.60;99.90;;;;;;5067598;28;20223;-79
2024/01/18 10:28:48;;;;;;;1.33;1.20;;;7.00;99.90;;;;;;5072099;28;20195;-80
2024/01/18 10:31:15;;;;;;;1.42;1.42;;;7.50;99.90;;;;;;5065795;28;20212;-79
2024/01/18 10:33:42;;;;;;;0.82;0.82;;;8.10;99.90;;;;;;5063415;28;20237;-81
2024/01/18 10:36:09;;;;;;;0.75;0.75;;;8.60;99.90;;;;;;5055573;28;20203;-82
2024/01/18 10:38:39;;;;;;;0.50;0.40;;;8.70;99.90;;;;;;5052680;28;20199;-81
2024/01/18 10:41:06;;;;;;;0.50;0.40;;;8.70;99.90;;;;;;5057798;28;20698;-82
2024/01/18 10:43:34;;;;;;;0.50;0.40;;;9.00;99.90;;;;;;5052345;28;20294;-83
2024/01/18 10:46:03;;;;;;;2.23;2.13;;;9.40;99.90;;;;;;5060043;28;20461;-82
2024/01/18 10:48:31;;;;;;;1.43;1.33;;;9.70;99.90;;;;;;5050625;28;20442;-81
2024/01/18 10:50:58;;;;;;;0.50;0.40;;;9.70;99.90;;;;;;5034665;28;20446;-82
2024/01/18 10:53:26;;;;;;;0.50;0.40;;;9.90;99.90;;;;;;5055106;28;21106;-81
2024/01/18 10:55:53;;;;;;;0.50;0.40;;;10.30;97.80;;;;;;5043404;28;20513;-82
2024/01/18 10:58:20;;;;;;;1.37;1.27;;;10.50;96.50;;;;;;5051303;28;20441;-82
2024/01/18 11:00:47;;;;;;;0.50;0.40;;;10.40;95.00;;;;;;5051252;28;20446;-82
2024/01/18 11:03:15;;;;;;;0.50;0.40;;;10.30;95.60;;;;;;5047126;28;20462;-82
2024/01/18 11:05:45;;;;;;;0.80;0.77;;;10.80;95.10;;;;;;5049278;28;20439;-82
2024/01/18 11:08:12;;;;;;;0.60;0.50;;;11.60;94.60;;;;;;5045417;28;20442;-82
2024/01/18 11:10:40;;;;;;;0.50;0.40;;;11.50;92.70;;;;;;5048957;28;20444;-82
2024/01/18 11:13:07;;;;;;;0.50;0.40;;;11.30;92.00;;;;;;5043941;28;20462;-81
2024/01/18 11:15:35;;;;;;;0.50;0.40;;;10.80;92.20;;;;;;5050954;28;20444;-80
2024/01/18 11:18:10;;;;;;;0.50;0.40;;;10.60;92.20;;;;;;5048471;28;20521;-81
2024/01/18 11:21:04;;;;;;;0.50;0.40;;;10.30;92.90;;;;;;5047815;28;20445;-81
2024/01/18 11:23:35;;;;;;;0.50;0.50;;;10.20;93.10;;;;;;5046989;28;20590;-82
2024/01/18 11:26:04;;;;;;;0.50;0.40;;;10.00;92.80;;;;;;5051184;28;20516;-81
2024/01/18 11:28:31;;;;;;;0.50;0.40;;;9.80;93.60;;;;;;5050403;28;20512;-82
2024/01/18 11:30:59;;;;;;;0.50;0.40;;;9.40;93.60;;;;;;5038080;28;20203;-81
2024/01/18 11:33:26;;;;;;;0.50;0.40;;;9.10;94.80;;;;;;5046636;28;20462;-81
2024/01/18 11:35:56;;;;;;;0.50;0.40;;;8.90;95.40;;;;;;5046472;28;20442;-82
2024/01/18 11:38:25;;;;;;;0.50;0.40;;;8.50;95.80;;;;;;5046369;28;20208;-81
2024/01/18 11:40:53;;;;;;;0.50;0.50;;;8.10;97.70;;;;;;5048741;28;20249;-81
2024/01/18 11:43:21;;;;;;;0.75;0.60;;;8.10;98.00;;;;;;5058516;28;20219;-81
2024/01/18 11:45:49;;;;;;;0.93;0.93;;;8.30;99.30;;;;;;5050814;28;20210;-79
2024/01/18 11:48:17;;;;;;;0.93;0.93;;;8.50;98.50;;;;;;5052291;28;20221;-81
2024/01/18 11:50:44;;;;;;;0.50;0.40;;;8.90;98.40;;;;;;5049467;28;20203;-80
2024/01/18 11:53:12;;;;;;;0.50;0.40;;;9.40;97.10;;;;;;5049968;28;20214;-81
2024/01/18 11:55:46;;;;;;;0.50;0.40;;;9.90;96.30;;;;;;5049250;28;20206;-81
2024/01/18 11:58:13;;;;;;;0.50;0.40;;;10.50;94.90;;;;;;5046048;28;20599;-82
2024/01/18 12:00:41;;;;;;;0.50;0.40;;;11.10;92.70;;;;;;5053622;28;20539;-81
2024/01/18 12:03:11;;;;;;;1.27;0.60;;;11.60;92.20;;;;;;5037395;28;20569;-81
2024/01/18 12:05:40;;;;;;;0.50;0.40;;;12.30;90.90;;;;;;5046285;28;20450;-80
2024/01/18 12:08:07;;;;;;;0.50;0.40;;;13.00;90.30;;;;;;5049506;28;20536;-82
2024/01/18 12:10:37;;;;;;;0.50;0.40;;;13.30;83.40;;;;;;5049662;28;20434;-82
2024/01/18 12:13:04;;;;;;;0.50;0.40;;;13.40;81.50;;;;;;5042032;28;20473;-82
2024/01/18 12:15:31;;;;;;;0.50;0.40;;;13.00;81.40;;;;;;5049833;28;20442;-81
2024/01/18 12:17:59;;;;;;;0.50;0.40;;;13.00;81.10;;;;;;5039504;28;21202;-82
2024/01/18 12:20:26;;;;;;;0.90;0.50;;;12.90;81.00;;;;;;5046199;28;20815;-82
2024/01/18 12:22:53;;;;;;;0.50;0.40;;;12.50;80.10;;;;;;5039415;28;20454;-81
2024/01/18 12:25:19;;;;;;;0.60;0.60;;;12.00;80.20;;;;;;5048934;28;20839;-81
2024/01/18 12:27:47;;;;;;;3.33;1.07;;;11.90;81.20;;;;;;5047065;28;20442;-81
2024/01/18 12:30:15;;;;;;;0.50;0.40;;;11.50;78.80;;;;;;5047322;28;20934;-79
2024/01/18 12:32:42;;;;;;;0.50;0.40;;;10.90;80.80;;;;;;5050808;28;20486;-80
2024/01/18 12:35:10;;;;;;;0.50;0.40;;;10.50;82.10;;;;;;5051120;28;20433;-81
2024/01/18 12:37:38;;;;;;;0.50;0.40;;;10.10;83.30;;;;;;5048151;28;20561;-81
2024/01/18 12:40:10;;;;;;;2.22;1.40;;;9.70;85.50;;;;;;5044914;28;20434;-81
2024/01/18 12:42:37;;;;;;;0.50;0.40;;;9.00;86.10;;;;;;5044360;28;20215;-80
2024/01/18 12:45:06;;;;;;;0.50;0.40;;;8.70;88.40;;;;;;5044926;28;20554;-81
2024/01/18 12:47:33;;;;;;;0.55;0.52;;;8.30;89.20;;;;;;5043833;28;20369;-81
2024/01/18 12:50:00;;;;;;;0.50;0.40;;;8.10;90.70;;;;;;5048439;28;20233;-81